Time;durP1;ratioP1;P1;durP2;ratioP2;P2;SDS_P1;SDS_P2;PMS_P1;PMS_P2;Temp;Humidity;BMP_temperature;BMP_pressure;BME280_temperature;BME280_humidity;BME280_pressure;Samples;Min_cycle;Max_cycle;Signal;HPM_P1;HPM_P2
2022/09/21 00:01:59;;;;;;;33.20;18.70;;;8.30;1.00;;;;;;5047302;28;20196;-83
2022/09/21 00:04:26;;;;;;;32.47;18.60;;;8.30;1.00;;;;;;5041135;28;20758;-83
2022/09/21 00:06:53;;;;;;;32.57;18.47;;;8.30;1.00;;;;;;5052357;28;20193;-82
2022/09/21 00:09:22;;;;;;;32.33;18.37;;;8.30;65.30;;;;;;5053057;28;20262;-83
2022/09/21 00:11:49;;;;;;;32.73;18.50;;;8.30;12.20;;;;;;5052744;28;20212;-83
2022/09/21 00:14:17;;;;;;;31.50;18.13;;;8.30;1.00;;;;;;5052386;28;20188;-84
2022/09/21 00:16:44;;;;;;;33.53;18.90;;;8.20;1.40;;;;;;5052596;28;20196;-83
2022/09/21 00:19:12;;;;;;;32.63;18.50;;;8.20;10.70;;;;;;5052376;28;20742;-83
2022/09/21 00:21:39;;;;;;;31.17;18.10;;;8.20;38.30;;;;;;5052485;28;20192;-84
2022/09/21 00:24:07;;;;;;;32.33;18.43;;;8.30;99.90;;;;;;5052575;28;20243;-83
2022/09/21 00:26:35;;;;;;;31.77;18.23;;;8.30;91.40;;;;;;5052193;28;20196;-83
2022/09/21 00:29:03;;;;;;;32.63;18.53;;;8.30;52.60;;;;;;5046152;28;20189;-83
2022/09/21 00:31:31;;;;;;;31.40;18.10;;;8.30;62.30;;;;;;5039134;28;20213;-83
2022/09/21 00:33:59;;;;;;;32.07;18.33;;;8.30;1.00;;;;;;5052488;28;20309;-83
2022/09/21 00:36:27;;;;;;;34.93;19.30;;;8.30;83.30;;;;;;5052059;28;20193;-83
2022/09/21 00:38:56;;;;;;;34.23;19.00;;;8.30;15.80;;;;;;5052427;28;20203;-83
2022/09/21 00:41:24;;;;;;;34.87;19.10;;;8.30;82.30;;;;;;5051307;28;20275;-83
2022/09/21 00:44:24;;;;;;;34.80;19.20;;;8.20;90.20;;;;;;5052205;28;20250;-83
2022/09/21 00:46:55;;;;;;;34.37;18.93;;;8.20;1.00;;;;;;5027269;28;20272;-83
2022/09/21 00:49:23;;;;;;;36.67;19.63;;;8.20;19.80;;;;;;5052257;28;20269;-84
2022/09/21 00:51:52;;;;;;;33.43;18.73;;;8.10;31.80;;;;;;5044626;28;20634;-83
2022/09/21 00:54:26;;;;;;;32.83;18.47;;;8.10;26.30;;;;;;5052108;28;20243;-83
2022/09/21 00:56:55;;;;;;;32.03;18.23;;;8.10;55.00;;;;;;5048818;28;20638;-83
2022/09/21 00:59:22;;;;;;;30.70;17.90;;;8.10;64.20;;;;;;5051669;28;20242;-83
2022/09/21 01:01:50;;;;;;;29.73;17.63;;;8.10;99.90;;;;;;5051505;28;20204;-84
2022/09/21 01:04:19;;;;;;;30.00;17.63;;;8.00;99.90;;;;;;5052054;28;20275;-83
2022/09/21 01:06:47;;;;;;;32.40;18.47;;;8.00;99.90;;;;;;5047973;28;20689;-84
2022/09/21 01:09:15;;;;;;;31.33;17.97;;;8.00;99.20;;;;;;5051675;28;20262;-82
2022/09/21 01:11:53;;;;;;;32.10;18.27;;;8.00;99.90;;;;;;5051704;28;20285;-83
2022/09/21 01:14:40;;;;;;;33.27;18.60;;;8.00;97.40;;;;;;5046661;28;20271;-83
2022/09/21 01:17:13;;;;;;;33.43;18.63;;;8.00;99.90;;;;;;5051531;28;20279;-84
2022/09/21 01:20:17;;;;;;;32.07;18.33;;;8.00;99.90;;;;;;5051580;28;20184;-83
2022/09/21 01:22:57;;;;;;;32.57;18.60;;;8.00;99.90;;;;;;5051405;28;20241;-82
2022/09/21 01:25:33;;;;;;;31.20;18.13;;;8.10;99.90;;;;;;5051381;28;20191;-83
2022/09/21 01:28:14;;;;;;;32.63;18.57;;;8.20;99.90;;;;;;5031478;28;20529;-82
2022/09/21 01:30:45;;;;;;;32.20;18.33;;;8.20;99.90;;;;;;5046297;28;20216;-82
2022/09/21 01:33:23;;;;;;;29.70;17.67;;;8.30;99.90;;;;;;5051594;28;20275;-85
2022/09/21 01:35:55;;;;;;;29.10;17.50;;;8.30;99.90;;;;;;5051152;28;20199;-82
2022/09/21 01:38:26;;;;;;;30.00;17.80;;;8.40;99.90;;;;;;5051649;28;20189;-83
2022/09/21 01:40:58;;;;;;;29.47;17.57;;;8.40;99.90;;;;;;5051507;28;20200;-84
2022/09/21 01:43:32;;;;;;;28.63;17.30;;;8.50;99.90;;;;;;5051470;28;20207;-85
2022/09/21 01:46:02;;;;;;;28.40;17.37;;;8.50;99.90;;;;;;5051115;28;20722;-83
2022/09/21 01:48:36;;;;;;;30.40;18.03;;;8.60;99.90;;;;;;5051487;28;20192;-85
2022/09/21 01:51:07;;;;;;;31.57;18.33;;;8.60;99.90;;;;;;5051270;28;20205;-83
2022/09/21 01:53:38;;;;;;;29.63;17.70;;;8.70;99.90;;;;;;5045548;28;20243;-82
2022/09/21 01:56:12;;;;;;;29.70;17.83;;;8.80;99.90;;;;;;5050051;28;20242;-84
2022/09/21 01:58:45;;;;;;;28.13;17.30;;;8.80;99.90;;;;;;5041356;28;20189;-83
2022/09/21 02:01:18;;;;;;;27.57;17.20;;;8.90;99.90;;;;;;5055366;28;20268;-85
2022/09/21 02:03:49;;;;;;;27.10;17.03;;;9.00;99.90;;;;;;5054966;28;20281;-84
2022/09/21 02:06:17;;;;;;;26.13;16.67;;;9.10;99.90;;;;;;5055289;28;20192;-84
2022/09/21 02:08:46;;;;;;;27.37;17.17;;;9.10;99.90;;;;;;5055053;28;20223;-82
2022/09/21 02:11:13;;;;;;;31.47;18.40;;;9.20;99.90;;;;;;5054700;28;20746;-84
2022/09/21 02:13:45;;;;;;;31.80;18.30;;;9.20;99.90;;;;;;5055212;28;20196;-83
2022/09/21 02:16:34;;;;;;;32.43;18.63;;;9.30;99.90;;;;;;5055141;28;20192;-83
2022/09/21 02:19:14;;;;;;;27.37;17.17;;;9.30;99.90;;;;;;5054700;28;20193;-83
2022/09/21 02:21:56;;;;;;;27.33;17.10;;;9.40;99.90;;;;;;5054989;28;20254;-83
2022/09/21 02:24:31;;;;;;;26.57;16.73;;;9.40;99.90;;;;;;5049360;28;20193;-85
2022/09/21 02:27:04;;;;;;;27.70;17.40;;;9.40;99.90;;;;;;5054804;28;20249;-82
2022/09/21 02:29:38;;;;;;;29.00;17.80;;;9.50;99.90;;;;;;5055056;28;20189;-83
2022/09/21 02:32:11;;;;;;;27.57;17.30;;;9.50;99.90;;;;;;5043413;28;20259;-83
2022/09/21 02:34:45;;;;;;;25.37;16.63;;;9.50;99.90;;;;;;5053555;28;20266;-84
2022/09/21 02:37:21;;;;;;;23.35;16.15;;;9.50;99.90;;;;;;5054834;28;20211;-84
2022/09/21 02:39:58;;;;;;;26.38;16.83;;;9.50;98.70;;;;;;5054515;28;20188;-83
2022/09/21 02:42:28;;;;;;;27.10;17.02;;;9.50;99.90;;;;;;5054795;28;20709;-83
2022/09/21 02:45:01;;;;;;;26.25;16.83;;;9.50;99.90;;;;;;5054315;28;20710;-83
2022/09/21 02:47:33;;;;;;;25.65;16.70;;;9.60;99.90;;;;;;5054283;28;20193;-82
2022/09/21 02:50:04;;;;;;;24.85;16.42;;;9.60;99.90;;;;;;5054752;28;20197;-83
2022/09/21 02:52:34;;;;;;;24.90;16.42;;;9.60;99.90;;;;;;5054259;28;20232;-83
2022/09/21 02:55:03;;;;;;;24.97;16.40;;;9.60;99.90;;;;;;5024764;28;20605;-83
2022/09/21 02:57:31;;;;;;;25.55;16.60;;;9.60;99.90;;;;;;5053756;28;20239;-85
2022/09/21 02:59:58;;;;;;;26.08;16.80;;;9.60;99.90;;;;;;5054132;28;20709;-84
2022/09/21 03:02:35;;;;;;;26.80;16.87;;;9.60;99.90;;;;;;5054391;28;20232;-83
2022/09/21 03:05:04;;;;;;;28.83;17.63;;;9.60;99.90;;;;;;5053241;28;20611;-82
2022/09/21 03:07:31;;;;;;;26.65;17.00;;;9.60;99.90;;;;;;5054353;28;20196;-83
2022/09/21 03:09:58;;;;;;;25.02;16.45;;;9.60;99.90;;;;;;5054130;28;20275;-86
2022/09/21 03:12:25;;;;;;;25.67;16.87;;;9.70;99.90;;;;;;5054287;28;20217;-83
2022/09/21 03:14:53;;;;;;;25.55;16.70;;;9.70;99.90;;;;;;5054277;28;20220;-83
2022/09/21 03:17:20;;;;;;;24.60;16.50;;;9.70;99.90;;;;;;5033575;28;20700;-85
2022/09/21 03:19:47;;;;;;;24.77;16.40;;;9.70;99.90;;;;;;5027708;28;20243;-83
2022/09/21 03:22:16;;;;;;;26.77;17.23;;;9.70;99.90;;;;;;5031688;28;20199;-84
2022/09/21 03:24:46;;;;;;;25.80;16.65;;;9.70;99.90;;;;;;5022061;28;20248;-85
2022/09/21 03:27:14;;;;;;;25.95;16.88;;;9.70;99.90;;;;;;5033944;28;20194;-84
2022/09/21 03:29:41;;;;;;;25.05;16.48;;;9.80;99.90;;;;;;5044789;28;20199;-85
2022/09/21 03:32:08;;;;;;;26.42;16.90;;;9.70;99.90;;;;;;5042297;28;20895;-83
2022/09/21 03:34:35;;;;;;;25.92;16.73;;;9.80;99.90;;;;;;5034783;28;20767;-84
2022/09/21 03:37:02;;;;;;;26.75;17.17;;;9.80;99.90;;;;;;5033713;28;20259;-85
2022/09/21 03:39:31;;;;;;;26.17;16.97;;;9.80;99.90;;;;;;5033289;28;20598;-86
2022/09/21 03:41:59;;;;;;;25.45;16.48;;;9.80;99.90;;;;;;5047286;28;20287;-83
2022/09/21 03:44:26;;;;;;;24.75;16.35;;;9.80;99.90;;;;;;5053895;28;20211;-85
2022/09/21 03:46:53;;;;;;;25.50;16.67;;;9.80;99.90;;;;;;5053598;28;20193;-86
2022/09/21 03:49:21;;;;;;;25.70;16.60;;;9.80;99.90;;;;;;5032312;28;20196;-83
2022/09/21 03:51:48;;;;;;;25.60;16.70;;;9.70;99.90;;;;;;5034937;28;20221;-83
2022/09/21 03:54:15;;;;;;;25.52;16.50;;;9.70;99.90;;;;;;5033180;28;20250;-83
2022/09/21 03:56:43;;;;;;;25.25;16.55;;;9.70;99.90;;;;;;5046335;28;20185;-83
2022/09/21 03:59:10;;;;;;;26.60;16.93;;;9.70;99.90;;;;;;5053099;28;20196;-83
2022/09/21 04:01:37;;;;;;;26.20;16.70;;;9.70;99.90;;;;;;5052558;28;20196;-83
2022/09/21 04:04:05;;;;;;;25.53;16.77;;;9.60;99.90;;;;;;5040833;28;20225;-84
2022/09/21 04:06:32;;;;;;;24.60;16.42;;;9.60;99.90;;;;;;5052728;28;20676;-84
2022/09/21 04:09:01;;;;;;;22.05;15.68;;;9.60;99.90;;;;;;5052978;28;20657;-82
2022/09/21 04:11:29;;;;;;;21.73;15.50;;;9.60;99.90;;;;;;5038925;28;20228;-84
2022/09/21 04:13:57;;;;;;;22.73;15.88;;;9.60;99.90;;;;;;5045053;28;20208;-85
2022/09/21 04:16:24;;;;;;;32.10;18.47;;;9.60;99.90;;;;;;5049577;28;20503;-84
2022/09/21 04:18:52;;;;;;;20.55;15.38;;;9.60;99.90;;;;;;5024991;28;20193;-84
2022/09/21 04:21:19;;;;;;;19.15;14.77;;;9.60;99.90;;;;;;5032916;28;20267;-83
2022/09/21 04:23:48;;;;;;;20.88;15.63;;;9.50;99.90;;;;;;5032619;28;20189;-83
2022/09/21 04:26:23;;;;;;;25.93;16.83;;;9.50;99.90;;;;;;5032557;28;20570;-85
2022/09/21 04:28:51;;;;;;;25.40;16.70;;;9.60;99.90;;;;;;5032614;28;20197;-85
2022/09/21 04:31:20;;;;;;;23.85;16.15;;;9.60;99.90;;;;;;5032675;28;20557;-83
2022/09/21 04:33:49;;;;;;;24.08;16.48;;;9.60;99.90;;;;;;5032657;28;20616;-83
2022/09/21 04:36:16;;;;;;;24.23;16.43;;;9.60;99.90;;;;;;5032514;28;20284;-83
2022/09/21 04:38:43;;;;;;;25.70;16.80;;;9.60;99.90;;;;;;5032338;28;20192;-83
2022/09/21 04:41:11;;;;;;;25.83;16.73;;;9.60;99.90;;;;;;5039640;28;20200;-85
2022/09/21 04:43:38;;;;;;;25.88;16.92;;;9.60;99.90;;;;;;5052461;28;20192;-84
2022/09/21 04:46:07;;;;;;;26.37;16.97;;;9.70;99.90;;;;;;5023799;28;20194;-84
2022/09/21 04:48:36;;;;;;;25.13;16.60;;;9.70;99.90;;;;;;5028601;28;20243;-83
2022/09/21 04:51:05;;;;;;;25.10;16.50;;;9.70;1.00;;;;;;5020487;28;20657;-84
2022/09/21 04:53:32;;;;;;;25.67;16.65;;;9.70;99.90;;;;;;5024631;28;20268;-85
2022/09/21 04:55:59;;;;;;;25.35;16.50;;;9.70;99.90;;;;;;5024009;28;20263;-84
2022/09/21 04:58:26;;;;;;;24.50;16.42;;;9.80;99.90;;;;;;5041122;28;20194;-87
2022/09/21 05:00:55;;;;;;;24.70;16.35;;;9.80;99.90;;;;;;5031890;28;20193;-85
2022/09/21 05:03:23;;;;;;;24.88;16.50;;;9.80;99.90;;;;;;5012119;28;20764;-85
2022/09/21 05:12:19;;;;;;;24.95;16.77;;;9.90;99.90;;;;;;5046583;28;20245;-84
2022/09/21 05:14:46;;;;;;;24.88;16.48;;;9.90;99.90;;;;;;5051194;28;20192;-84
2022/09/21 05:17:13;;;;;;;25.30;16.60;;;9.90;99.90;;;;;;5051617;28;20196;-85
2022/09/21 05:19:41;;;;;;;26.25;17.10;;;9.90;99.90;;;;;;5052027;28;20201;-84
2022/09/21 05:22:07;;;;;;;25.48;16.67;;;10.00;99.90;;;;;;5050596;28;20254;-84
2022/09/21 05:24:36;;;;;;;23.95;16.27;;;10.00;99.90;;;;;;5037602;28;20243;-84
2022/09/21 05:27:03;;;;;;;24.10;16.55;;;10.00;99.90;;;;;;5049705;28;20216;-84
2022/09/21 05:29:31;;;;;;;24.67;16.65;;;10.10;99.90;;;;;;5051625;28;20192;-85
2022/09/21 05:32:05;;;;;;;25.60;16.73;;;10.20;99.90;;;;;;5051384;28;20224;-84
2022/09/21 05:34:41;;;;;;;26.00;16.85;;;10.20;99.90;;;;;;5052036;28;20188;-86
2022/09/21 05:37:14;;;;;;;25.08;16.65;;;10.20;99.90;;;;;;5051501;28;20660;-84
2022/09/21 05:39:43;;;;;;;25.40;16.77;;;10.30;1.00;;;;;;5052465;28;20637;-85
2022/09/21 05:42:11;;;;;;;25.52;16.92;;;10.30;99.90;;;;;;5051555;28;20212;-86
2022/09/21 05:44:38;;;;;;;25.88;17.05;;;10.40;99.90;;;;;;5051526;28;21019;-86
2022/09/21 05:47:20;;;;;;;25.58;17.13;;;10.40;99.90;;;;;;5051864;28;20192;-86
2022/09/21 05:49:57;;;;;;;25.30;16.92;;;10.50;99.90;;;;;;5051699;28;20181;-86
2022/09/21 05:52:29;;;;;;;26.50;17.45;;;10.60;99.90;;;;;;5049417;28;20706;-86
2022/09/21 05:55:06;;;;;;;27.08;17.50;;;10.60;99.90;;;;;;5043998;28;20272;-86
2022/09/21 05:57:45;;;;;;;26.27;17.17;;;10.70;99.90;;;;;;5047512;28;20188;-86
2022/09/21 06:00:16;;;;;;;26.33;17.25;;;10.70;99.90;;;;;;5051426;28;20539;-85
2022/09/21 06:03:07;;;;;;;26.92;17.58;;;10.80;99.90;;;;;;5049969;28;20224;-86
2022/09/21 06:05:34;;;;;;;26.65;17.52;;;10.90;99.90;;;;;;5035259;28;20193;-86
2022/09/21 06:08:02;;;;;;;27.02;17.73;;;10.90;99.90;;;;;;5049637;28;20583;-85
2022/09/21 06:10:34;;;;;;;27.23;17.85;;;11.00;99.90;;;;;;5051557;28;20192;-86
2022/09/21 06:13:01;;;;;;;26.40;17.50;;;11.10;99.90;;;;;;5051140;28;20606;-86
2022/09/21 06:15:28;;;;;;;27.90;18.13;;;11.20;99.90;;;;;;5052061;28;20255;-86
2022/09/21 06:17:55;;;;;;;28.35;18.33;;;11.20;99.90;;;;;;5051058;28;20714;-86
2022/09/21 06:20:23;;;;;;;27.73;18.13;;;11.30;99.90;;;;;;5051201;28;20598;-86
2022/09/21 06:22:50;;;;;;;28.88;18.38;;;11.40;99.90;;;;;;5044351;28;21050;-86
2022/09/21 06:25:19;;;;;;;28.67;18.40;;;11.50;99.90;;;;;;5051337;28;20254;-86
2022/09/21 06:27:47;;;;;;;27.63;17.73;;;11.60;99.90;;;;;;5051768;28;20201;-86
2022/09/21 06:30:14;;;;;;;27.92;17.83;;;11.80;99.90;;;;;;5051260;28;20192;-86
2022/09/21 06:32:41;;;;;;;27.23;17.48;;;11.90;99.90;;;;;;5043500;28;20277;-86
2022/09/21 06:35:09;;;;;;;28.88;18.25;;;12.10;99.90;;;;;;5051282;28;20239;-86
2022/09/21 06:37:37;;;;;;;29.48;18.25;;;12.30;99.90;;;;;;5051388;28;20200;-86
2022/09/21 06:40:04;;;;;;;27.42;17.67;;;12.50;99.90;;;;;;5052098;28;20203;-86
2022/09/21 06:42:31;;;;;;;25.45;17.20;;;12.90;1.00;;;;;;5054449;28;20200;-86
2022/09/21 06:45:00;;;;;;;24.52;17.15;;;13.60;99.90;;;;;;5054846;28;20225;-85
2022/09/21 06:47:27;;;;;;;24.55;17.17;;;14.30;1.00;;;;;;5054392;28;20819;-85
2022/09/21 06:49:54;;;;;;;28.65;18.73;;;14.90;1.00;;;;;;5054750;28;20609;-85
2022/09/21 06:52:21;;;;;;;;;;;15.30;99.90;;;;;;5053338;28;20041;-85
2022/09/21 06:54:48;;;;;;;33.03;20.00;;;15.50;99.90;;;;;;5042250;28;20198;-85
2022/09/21 06:57:15;;;;;;;37.25;21.17;;;15.80;99.90;;;;;;5054630;28;20539;-85
2022/09/21 06:59:42;;;;;;;38.35;21.55;;;15.90;99.90;;;;;;5054165;28;20712;-85
2022/09/21 07:02:11;;;;;;;37.80;21.50;;;16.00;99.90;;;;;;5052640;28;20193;-85
2022/09/21 07:04:38;;;;;;;37.08;21.17;;;16.10;99.90;;;;;;5054557;28;20229;-86
2022/09/21 07:07:05;;;;;;;39.10;21.60;;;16.10;75.80;;;;;;5054482;28;20593;-84
2022/09/21 07:09:32;;;;;;;39.97;21.92;;;16.20;99.90;;;;;;5054051;28;20224;-86
2022/09/21 07:11:59;;;;;;;38.78;21.65;;;16.20;87.90;;;;;;5054446;28;20196;-85
2022/09/21 07:14:26;;;;;;;38.47;21.50;;;16.10;6.90;;;;;;5053998;28;20270;-86
2022/09/21 07:16:53;;;;;;;37.22;21.05;;;16.00;1.00;;;;;;5054052;28;20246;-85
2022/09/21 07:19:22;;;;;;;36.50;20.95;;;15.80;1.00;;;;;;5054158;28;20616;-85
2022/09/21 07:21:49;;;;;;;37.47;21.13;;;15.80;1.00;;;;;;5054690;28;20188;-84
2022/09/21 07:24:16;;;;;;;38.20;21.27;;;15.70;1.00;;;;;;5051820;28;20197;-85
2022/09/21 07:26:42;;;;;;;39.03;21.42;;;15.50;1.00;;;;;;5039663;28;20254;-87
2022/09/21 07:29:09;;;;;;;38.97;21.50;;;15.40;1.00;;;;;;5054005;28;20201;-86
2022/09/21 07:31:36;;;;;;;41.08;22.20;;;15.40;1.00;;;;;;5054113;28;20262;-87
2022/09/21 07:34:04;;;;;;;41.22;22.10;;;15.40;1.00;;;;;;5054101;28;20220;-86
2022/09/21 07:36:32;;;;;;;42.92;22.52;;;15.40;1.00;;;;;;5054100;28;20192;-85
2022/09/21 07:38:59;;;;;;;43.05;22.65;;;15.40;1.00;;;;;;5053705;28;20188;-87
2022/09/21 07:41:26;;;;;;;40.60;21.95;;;15.50;1.00;;;;;;5053921;28;20196;-86
2022/09/21 07:43:53;;;;;;;40.80;22.05;;;15.50;1.00;;;;;;5053585;28;20205;-85
2022/09/21 07:46:20;;;;;;;41.78;22.35;;;15.50;1.00;;;;;;5053838;28;20661;-86
2022/09/21 07:48:47;;;;;;;40.88;22.02;;;15.50;1.00;;;;;;5053991;28;20196;-87
2022/09/21 07:51:16;;;;;;;41.30;22.00;;;15.50;1.00;;;;;;5053398;28;20196;-85
2022/09/21 07:53:44;;;;;;;41.55;22.17;;;15.50;1.00;;;;;;5043097;28;20216;-87
2022/09/21 07:56:13;;;;;;;41.60;22.15;;;15.40;1.00;;;;;;5052695;28;20232;-86
2022/09/21 08:01:27;;;;;;;40.88;21.95;;;15.10;1.00;;;;;;5056155;28;20269;-88
2022/09/21 08:03:55;;;;;;;40.85;21.83;;;14.90;1.00;;;;;;5055651;28;20228;-85
2022/09/21 08:06:24;;;;;;;45.40;23.02;;;14.90;1.00;;;;;;5053391;28;20189;-86
2022/09/21 08:08:52;;;;;;;42.05;22.35;;;14.90;1.00;;;;;;5053279;28;20227;-86
2022/09/21 08:11:22;;;;;;;41.35;22.23;;;15.10;1.00;;;;;;5053327;28;20201;-86
2022/09/21 08:13:52;;;;;;;41.00;22.13;;;15.30;1.00;;;;;;5053160;28;20707;-88
2022/09/21 08:16:18;;;;;;;;;;;15.80;1.00;;;;;;5053333;28;20045;-87
2022/09/21 08:18:45;;;;;;;21.50;16.53;;;16.90;99.90;;;;;;5053176;28;19920;-86
2022/09/21 08:21:13;;;;;;;24.88;17.77;;;17.70;5.50;;;;;;5053032;28;20654;-87
2022/09/21 08:23:41;;;;;;;;;;;18.20;1.00;;;;;;5045678;28;20078;-87
2022/09/21 08:26:13;;;;;;;;;;;18.70;1.00;;;;;;5050432;28;19925;-87
2022/09/21 08:28:40;;;;;;;;;;;19.00;1.00;;;;;;5026618;28;20018;-86
2022/09/21 08:31:08;;;;;;;;;;;19.20;1.00;;;;;;5053988;28;20086;-85
2022/09/21 08:33:34;;;;;;;;;;;19.40;1.00;;;;;;5053030;28;20435;-88
2022/09/21 08:36:02;;;;;;;;;;;19.80;1.00;;;;;;5042848;28;19979;-86
2022/09/21 08:38:32;;;;;;;;;;;20.20;1.00;;;;;;5036420;28;19983;-89
2022/09/21 08:41:00;;;;;;;;;;;20.70;1.00;;;;;;5047930;28;19921;-88
2022/09/21 08:43:32;;;;;;;;;;;21.60;1.00;;;;;;5045337;28;20797;-89
2022/09/21 08:46:00;;;;;;;11.88;8.00;;;22.50;1.00;;;;;;5052958;28;20052;-89
2022/09/21 08:48:31;;;;;;;6.25;3.47;;;23.30;1.00;;;;;;5041965;28;20189;-88
2022/09/21 08:51:02;;;;;;;658.08;487.67;;;23.90;1.00;;;;;;5050834;28;20182;-91
2022/09/21 08:53:33;;;;;;;458.05;413.10;;;24.30;1.00;;;;;;5052176;28;20597;-88
2022/09/21 08:56:00;;;;;;;689.42;522.72;;;24.40;1.00;;;;;;5040766;28;20598;-87
2022/09/21 08:58:28;;;;;;;;;;;24.30;1.00;;;;;;5042717;28;20220;-87
2022/09/21 09:01:04;;;;;;;;;;;24.70;1.00;;;;;;5048102;28;19920;-87
2022/09/21 09:03:47;;;;;;;653.22;501.80;;;25.30;1.00;;;;;;5051272;28;20405;-87
2022/09/21 09:06:24;;;;;;;668.03;535.42;;;26.00;1.00;;;;;;5051746;28;20700;-88
2022/09/21 09:09:23;;;;;;;653.33;510.73;;;26.50;1.00;;;;;;5052507;28;20184;-87
2022/09/21 09:12:05;;;;;;;665.67;557.28;;;27.00;1.00;;;;;;5048421;28;20235;-88
2022/09/21 09:14:47;;;;;;;658.85;548.60;;;27.20;1.00;;;;;;5052074;28;20255;-87
2022/09/21 09:17:33;;;;;;;654.35;547.25;;;27.30;1.00;;;;;;5051805;28;20696;-87
2022/09/21 09:20:05;;;;;;;658.00;555.38;;;27.50;1.00;;;;;;5051976;28;20610;-88
2022/09/21 09:22:37;;;;;;;648.85;544.60;;;27.30;1.00;;;;;;5046708;28;20353;-87
2022/09/21 09:25:07;;;;;;;647.72;541.75;;;27.30;1.00;;;;;;5050476;28;20185;-88
2022/09/21 09:27:37;;;;;;;688.38;601.13;;;27.30;1.00;;;;;;5051459;28;20193;-88
2022/09/21 09:30:17;;;;;;;683.97;608.42;;;27.30;1.00;;;;;;5051419;28;20574;-87
2022/09/21 09:32:52;;;;;;;689.78;614.15;;;27.30;1.00;;;;;;5051913;28;20192;-87
2022/09/21 09:35:26;;;;;;;655.35;560.85;;;27.40;1.00;;;;;;5051967;28;20242;-92
2022/09/21 09:37:57;;;;;;;696.07;429.40;;;27.50;1.00;;;;;;5051814;28;20200;-87
2022/09/21 09:40:41;;;;;;;520.92;136.30;;;27.40;1.00;;;;;;5051858;28;20193;-87
2022/09/21 09:43:15;;;;;;;575.10;168.53;;;27.00;1.00;;;;;;5050543;28;20284;-86
2022/09/21 09:45:53;;;;;;;116.37;110.60;;;26.60;1.00;;;;;;5054889;28;20218;-90
2022/09/21 09:48:45;;;;;;;89.27;84.77;;;26.10;1.00;;;;;;5046204;28;20295;-89
2022/09/21 09:51:13;;;;;;;59.60;56.43;;;25.40;1.00;;;;;;5048927;28;20163;-90
2022/09/21 09:53:40;;;;;;;63.57;60.10;;;24.50;1.00;;;;;;5052577;28;20226;-87
2022/09/21 09:56:10;;;;;;;52.53;49.70;;;23.80;1.00;;;;;;5051750;28;20192;-87
2022/09/21 09:58:42;;;;;;;46.17;43.63;;;23.30;1.00;;;;;;5051633;28;20228;-87
2022/09/21 10:01:09;;;;;;;30.50;28.70;;;22.80;1.00;;;;;;5051499;28;20238;-87
2022/09/21 10:03:39;;;;;;;36.30;34.30;;;22.80;1.00;;;;;;5043620;28;20262;-87
2022/09/21 10:06:16;;;;;;;17.20;11.73;;;22.50;1.00;;;;;;5047454;28;20198;-87
2022/09/21 10:08:46;;;;;;;30.73;28.93;;;22.30;1.00;;;;;;5052044;28;20582;-90
2022/09/21 10:11:15;;;;;;;36.60;34.57;;;22.00;1.00;;;;;;5052759;28;20208;-89
2022/09/21 10:13:43;;;;;;;40.57;38.27;;;22.00;1.00;;;;;;5053038;28;20247;-91
2022/09/21 10:16:14;;;;;;;49.30;46.57;;;22.30;1.00;;;;;;5056686;28;20253;-87
2022/09/21 10:18:47;;;;;;;48.83;46.13;;;22.40;1.00;;;;;;5056361;28;20261;-88
2022/09/21 10:21:20;;;;;;;47.67;44.97;;;22.40;1.00;;;;;;5055295;28;20193;-87
2022/09/21 10:23:49;;;;;;;38.03;35.87;;;22.30;1.00;;;;;;5055340;28;20204;-88
2022/09/21 10:26:18;;;;;;;27.43;25.90;;;21.90;1.00;;;;;;5055002;28;20199;-86
2022/09/21 10:29:00;;;;;;;21.83;15.67;;;21.30;1.00;;;;;;5055254;28;20279;-87
2022/09/21 10:31:28;;;;;;;20.25;9.70;;;20.60;1.00;;;;;;5055327;28;20260;-87
2022/09/21 10:34:11;;;;;;;49.70;14.82;;;20.10;1.00;;;;;;5038576;28;20206;-87
2022/09/21 10:36:40;;;;;;;25.35;14.80;;;19.50;1.00;;;;;;5051004;28;20192;-87
2022/09/21 10:39:21;;;;;;;34.77;12.27;;;18.80;1.00;;;;;;5055719;28;20258;-87
2022/09/21 10:41:50;;;;;;;49.63;13.73;;;18.40;1.00;;;;;;5052157;28;20335;-90
2022/09/21 10:44:20;;;;;;;162.30;37.17;;;18.10;1.00;;;;;;5055259;28;20273;-89
2022/09/21 10:46:48;;;;;;;138.95;34.38;;;17.90;1.00;;;;;;5055765;28;20224;-91
2022/09/21 10:49:24;;;;;;;140.00;34.28;;;17.80;1.00;;;;;;5055560;28;20201;-88
2022/09/21 10:51:55;;;;;;;143.57;34.97;;;17.80;1.00;;;;;;5055733;28;20201;-92
2022/09/21 10:54:27;;;;;;;148.35;35.50;;;17.80;1.00;;;;;;5055741;28;20229;-88
2022/09/21 10:56:57;;;;;;;143.27;35.15;;;17.80;1.00;;;;;;5056271;28;20290;-92
2022/09/21 10:59:26;;;;;;;;;;;17.90;1.00;;;;;;5063415;28;20229;-90
2022/09/21 11:01:54;;;;;;;143.68;34.90;;;17.90;1.00;;;;;;5047740;28;20053;-90
2022/09/21 11:04:41;;;;;;;144.07;35.13;;;18.00;1.00;;;;;;5055028;28;21939;-86
2022/09/21 11:07:16;;;;;;;141.07;34.78;;;18.00;1.00;;;;;;5054630;28;20241;-87
2022/09/21 11:09:50;;;;;;;143.82;35.03;;;18.00;1.00;;;;;;5055186;28;20199;-92
2022/09/21 11:12:41;;;;;;;145.52;35.25;;;18.00;1.00;;;;;;5049215;28;20191;-91
2022/09/21 11:15:27;;;;;;;148.02;35.50;;;18.00;1.00;;;;;;5030419;28;20258;-86
2022/09/21 11:18:02;;;;;;;151.23;36.17;;;18.10;1.00;;;;;;5052986;28;20207;-87
2022/09/21 11:20:39;;;;;;;154.15;36.70;;;18.30;1.00;;;;;;5044413;28;20192;-87
2022/09/21 11:23:21;;;;;;;149.68;36.15;;;18.50;1.00;;;;;;5037906;28;20185;-91
2022/09/21 11:25:56;;;;;;;152.73;36.05;;;18.60;1.00;;;;;;5034425;28;20199;-89
2022/09/21 11:28:29;;;;;;;151.80;36.00;;;18.50;1.00;;;;;;5052697;28;20281;-87
2022/09/21 11:31:12;;;;;;;151.30;35.78;;;18.40;1.00;;;;;;5053975;28;20219;-86
2022/09/21 11:34:00;;;;;;;151.13;35.85;;;18.10;1.00;;;;;;5038364;28;20253;-86
2022/09/21 11:36:38;;;;;;;153.70;35.92;;;18.00;1.00;;;;;;5030129;28;20201;-89
2022/09/21 11:39:14;;;;;;;154.85;36.10;;;18.00;1.00;;;;;;5042285;28;20200;-87
2022/09/21 11:42:01;;;;;;;156.05;36.42;;;18.00;1.00;;;;;;5053843;28;20257;-87
2022/09/21 11:44:45;;;;;;;155.77;36.85;;;17.90;1.00;;;;;;5053838;28;20680;-87
2022/09/21 11:47:24;;;;;;;154.73;36.25;;;17.90;1.00;;;;;;5053982;28;20223;-87
2022/09/21 11:50:17;;;;;;;157.15;36.55;;;17.70;1.00;;;;;;5053480;28;20254;-87
2022/09/21 11:52:56;;;;;;;144.85;34.08;;;17.70;1.00;;;;;;5039679;28;20659;-87
2022/09/21 11:55:43;;;;;;;159.38;37.53;;;17.70;1.00;;;;;;5045825;28;20545;-87
2022/09/21 11:58:20;;;;;;;157.88;37.15;;;17.90;1.00;;;;;;5027840;28;20191;-87
2022/09/21 12:01:01;;;;;;;162.98;37.83;;;18.00;1.00;;;;;;5053237;28;20670;-89
2022/09/21 12:04:03;;;;;;;161.05;36.97;;;18.10;1.00;;;;;;5054175;28;20278;-88
2022/09/21 12:06:49;;;;;;;160.70;36.95;;;18.30;1.00;;;;;;4987345;28;20265;-88
2022/09/21 12:09:46;;;;;;;162.63;37.25;;;18.50;1.00;;;;;;5041815;28;20653;-93
2022/09/21 12:12:20;;;;;;;157.25;37.20;;;18.80;1.00;;;;;;5054373;28;20196;-89
2022/09/21 12:14:55;;;;;;;159.77;36.97;;;19.00;1.00;;;;;;5036317;28;20670;-88
2022/09/21 12:17:31;;;;;;;155.05;36.78;;;19.20;1.00;;;;;;5045109;28;20717;-88
2022/09/21 12:20:06;;;;;;;153.60;36.88;;;19.40;1.00;;;;;;5054140;28;20196;-90
2022/09/21 12:22:36;;;;;;;149.80;36.00;;;19.60;1.00;;;;;;5053830;28;20262;-88
2022/09/21 12:25:14;;;;;;;154.57;36.58;;;19.80;1.00;;;;;;5049674;28;20222;-87
2022/09/21 12:27:44;;;;;;;155.73;36.65;;;19.80;1.00;;;;;;5045651;28;20193;-92
2022/09/21 12:30:13;;;;;;;153.85;36.63;;;19.80;1.00;;;;;;5039197;28;20185;-89
2022/09/21 12:32:52;;;;;;;153.43;36.83;;;19.90;1.00;;;;;;5035644;28;20243;-90
2022/09/21 12:35:24;;;;;;;151.95;36.70;;;20.00;1.00;;;;;;5053506;28;20529;-92
2022/09/21 12:37:58;;;;;;;148.80;35.70;;;19.90;1.00;;;;;;5053672;28;20628;-91
2022/09/21 12:40:31;;;;;;;;;;;19.80;1.00;;;;;;5042281;28;20194;-87
2022/09/21 12:43:03;;;;;;;;;;;20.00;1.00;;;;;;5053133;28;20513;-87
2022/09/21 12:45:33;;;;;;;150.60;36.03;;;20.20;1.00;;;;;;5052599;28;20097;-87
2022/09/21 12:48:10;;;;;;;155.68;36.95;;;20.30;1.00;;;;;;5051379;28;20197;-87
2022/09/21 12:50:43;;;;;;;149.95;35.38;;;20.50;1.00;;;;;;5038579;28;20194;-86
2022/09/21 12:53:17;;;;;;;148.88;35.05;;;20.70;1.00;;;;;;5044919;28;20252;-87
2022/09/21 12:55:54;;;;;;;148.70;35.15;;;20.50;1.00;;;;;;5047404;28;20675;-87
2022/09/21 12:58:40;;;;;;;149.57;35.60;;;20.20;1.00;;;;;;5052261;28;20204;-87
2022/09/21 13:01:20;;;;;;;148.32;35.58;;;19.90;1.00;;;;;;5052050;28;20717;-86
2022/09/21 13:03:55;;;;;;;151.25;36.08;;;19.50;1.00;;;;;;5051955;28;20703;-87
2022/09/21 13:07:08;;;;;;;141.95;34.17;;;19.10;1.00;;;;;;5051940;28;20188;-88
2022/09/21 13:09:41;;;;;;;142.25;35.25;;;18.80;1.00;;;;;;5022200;28;20670;-88
2022/09/21 13:12:15;;;;;;;142.10;34.60;;;18.60;1.00;;;;;;5052384;28;20277;-87